Time;durP1;ratioP1;P1;durP2;ratioP2;P2;SDS_P1;SDS_P2;PMS_P1;PMS_P2;Temp;Humidity;BMP_temperature;BMP_pressure;BME280_temperature;BME280_humidity;BME280_pressure;Samples;Min_cycle;Max_cycle;Signal;HPM_P1;HPM_P2
2022/08/10 00:01:05;;;;;;;;;;;21.80;99.90;;;;;;5032735;28;20287;-86
2022/08/10 00:03:31;;;;;;;;;;;21.80;99.90;;;;;;5032920;28;20012;-86
2022/08/10 00:05:56;;;;;;;;;;;21.80;99.90;;;;;;5049092;28;20541;-86
2022/08/10 00:08:25;;;;;;;;;;;21.70;99.90;;;;;;5032764;28;19909;-86
2022/08/10 00:10:52;;;;;;;;;;;21.70;99.90;;;;;;5032829;28;19909;-85
2022/08/10 00:13:17;;;;;;;;;;;21.60;99.90;;;;;;5034283;28;19909;-86
2022/08/10 00:15:43;;;;;;;;;;;21.60;99.90;;;;;;5033783;28;19916;-87
2022/08/10 00:18:08;;;;;;;;;;;21.60;99.90;;;;;;5049512;28;19909;-86
2022/08/10 00:20:34;;;;;;;;;;;21.60;99.90;;;;;;5032867;28;20000;-86
2022/08/10 00:22:59;;;;;;;;;;;21.50;99.90;;;;;;5032696;28;20012;-87
2022/08/10 00:25:25;;;;;;;;;;;21.50;99.90;;;;;;5032756;28;19913;-86
2022/08/10 00:27:50;;;;;;;;;;;21.50;99.90;;;;;;5032277;28;19913;-86
2022/08/10 00:30:16;;;;;;;;;;;21.40;99.90;;;;;;5031678;28;19960;-86
2022/08/10 00:32:41;;;;;;;;;;;21.50;99.90;;;;;;5032582;28;19913;-86
2022/08/10 00:35:07;;;;;;;;;;;21.50;99.90;;;;;;5032595;28;20261;-87
2022/08/10 00:37:32;;;;;;;;;;;21.50;99.90;;;;;;5032161;28;19909;-86
2022/08/10 00:39:58;;;;;;;;;;;21.50;99.90;;;;;;5033638;28;19910;-85
2022/08/10 00:42:23;;;;;;;;;;;21.50;99.90;;;;;;5033657;28;19909;-86
2022/08/10 00:44:49;;;;;;;;;;;21.40;99.90;;;;;;5032202;28;19916;-86
2022/08/10 00:47:14;;;;;;;;;;;21.40;99.90;;;;;;5033212;28;19967;-86
2022/08/10 00:49:40;;;;;;;;;;;21.40;99.90;;;;;;5045003;22;19925;-87
2022/08/10 00:52:06;;;;;;;;;;;21.40;99.90;;;;;;5072939;28;19999;-86
2022/08/10 00:54:33;;;;;;;;;;;21.30;99.90;;;;;;5055066;28;19908;-86
2022/08/10 00:56:59;;;;;;;;;;;21.30;99.90;;;;;;5055212;28;19966;-87
2022/08/10 00:59:24;;;;;;;;;;;21.20;99.90;;;;;;5073125;28;19954;-87
2022/08/10 01:01:50;;;;;;;;;;;21.20;99.90;;;;;;5073158;28;19915;-86
2022/08/10 01:04:15;;;;;;;;;;;21.20;99.90;;;;;;5071935;28;20010;-87
2022/08/10 01:06:44;;;;;;;;;;;21.10;99.90;;;;;;5071405;28;19924;-86
2022/08/10 01:09:21;;;;;;;;;;;21.00;99.90;;;;;;5073095;28;20272;-86
2022/08/10 01:11:54;;;;;;;;;;;21.10;99.90;;;;;;5071826;28;20291;-88
2022/08/10 01:14:38;;;;;;;;;;;21.00;99.90;;;;;;5071820;28;20015;-86
2022/08/10 01:17:11;;;;;;;;;;;21.00;99.90;;;;;;5071478;28;19931;-86
2022/08/10 01:19:43;;;;;;;;;;;20.90;99.90;;;;;;5071692;28;19919;-86
2022/08/10 01:22:21;;;;;;;;;;;20.80;99.90;;;;;;5073035;28;19999;-86
2022/08/10 01:25:05;;;;;;;;;;;20.80;99.90;;;;;;5071977;28;19916;-86
2022/08/10 01:27:37;;;;;;;;;;;20.70;99.90;;;;;;5071404;28;19912;-87
2022/08/10 01:30:29;;;;;;;;;;;20.70;99.90;;;;;;5072827;28;20425;-87
2022/08/10 01:32:57;;;;;;;;;;;20.60;99.90;;;;;;5067713;28;19935;-86
2022/08/10 01:35:26;;;;;;;;;;;20.60;99.90;;;;;;5072884;28;19909;-87
2022/08/10 01:38:02;;;;;;;;;;;20.50;99.90;;;;;;5071362;28;19966;-87
2022/08/10 01:40:29;;;;;;;;;;;20.50;99.90;;;;;;5072801;28;19973;-86
2022/08/10 01:42:57;;;;;;;;;;;20.50;99.90;;;;;;5078370;28;19916;-86
2022/08/10 01:45:23;;;;;;;;;;;20.50;99.90;;;;;;5078137;28;19930;-86
2022/08/10 01:50:38;;;;;;;;;;;20.40;99.90;;;;;;5079562;28;19967;-86
2022/08/10 01:53:06;;;;;;;;;;;20.40;99.90;;;;;;5078210;28;19915;-86
2022/08/10 01:55:32;;;;;;;;;;;20.30;99.90;;;;;;5079262;28;19908;-86
2022/08/10 01:57:59;;;;;;;;;;;20.30;99.90;;;;;;5077944;28;19909;-87
2022/08/10 02:00:25;;;;;;;;;;;20.30;99.90;;;;;;5078074;28;19909;-86
2022/08/10 02:02:52;;;;;;;;;;;20.30;99.90;;;;;;5078074;28;19909;-87
2022/08/10 02:05:18;;;;;;;;;;;20.20;99.90;;;;;;5079215;28;19909;-87
2022/08/10 02:07:45;;;;;;;;;;;20.20;99.90;;;;;;5077748;28;19912;-87
2022/08/10 02:10:12;;;;;;;;;;;20.20;99.90;;;;;;5077906;28;19909;-86
2022/08/10 02:12:38;;;;;;;;;;;20.10;99.90;;;;;;5077998;28;19909;-87
2022/08/10 02:15:24;;;;;;;;;;;20.10;99.90;;;;;;5078000;28;19947;-87
2022/08/10 02:17:55;;;;;;;;;;;20.10;99.90;;;;;;5076894;28;19913;-86
2022/08/10 02:20:22;;;;;;;;;;;20.10;99.90;;;;;;5079077;28;20342;-86
2022/08/10 02:22:52;;;;;;;;;;;20.10;99.90;;;;;;5077994;28;19909;-86
2022/08/10 02:25:18;;;;;;;;;;;20.00;99.90;;;;;;5077829;28;19908;-86
2022/08/10 02:27:45;;;;;;;;;;;19.90;99.90;;;;;;5077428;28;19947;-86
2022/08/10 02:30:11;;;;;;;;;;;19.90;99.90;;;;;;5077725;28;19947;-86
2022/08/10 02:32:37;;;;;;;;;;;19.80;99.90;;;;;;5077763;28;19912;-86
2022/08/10 02:35:04;;;;;;;;;;;19.80;99.90;;;;;;5077803;28;20275;-86
2022/08/10 02:37:30;;;;;;;;;;;19.80;99.90;;;;;;5077760;28;19908;-86
2022/08/10 02:39:56;;;;;;;;;;;19.80;99.90;;;;;;5077529;28;20040;-87
2022/08/10 02:42:23;;;;;;;;;;;19.70;99.90;;;;;;5077791;28;20375;-86
2022/08/10 02:44:58;;;;;;;;;;;19.70;99.90;;;;;;5077647;28;20279;-87
2022/08/10 02:47:41;;;;;;;;;;;19.70;99.90;;;;;;5077371;28;19913;-86
2022/08/10 02:50:25;;;;;;;;;;;19.70;99.90;;;;;;5077424;28;20290;-86
2022/08/10 02:53:01;;;;;;;;;;;19.60;99.90;;;;;;5074703;28;19916;-86
2022/08/10 02:55:41;;;;;;;;;;;19.60;99.90;;;;;;5075508;28;20324;-86
2022/08/10 02:58:09;;;;;;;;;;;19.50;99.90;;;;;;5074146;28;19908;-87
2022/08/10 03:00:40;;;;;;;;;;;19.50;99.90;;;;;;5074322;28;19909;-86
2022/08/10 03:03:07;;;;;;;;;;;19.50;99.90;;;;;;5074247;28;19913;-86
2022/08/10 03:05:32;;;;;;;;;;;19.40;99.90;;;;;;5073864;28;19914;-88
2022/08/10 03:08:04;;;;;;;;;;;19.40;99.90;;;;;;5073886;28;19916;-86
2022/08/10 03:10:31;;;;;;;;;;;19.40;99.90;;;;;;5074092;28;19908;-86
2022/08/10 03:12:58;;;;;;;;;;;19.40;99.90;;;;;;5074032;28;19908;-87
2022/08/10 03:15:26;;;;;;;;;;;19.40;99.90;;;;;;5073951;28;19909;-86
2022/08/10 03:17:52;;;;;;;;;;;19.30;99.90;;;;;;5073692;28;19948;-86
2022/08/10 03:20:18;;;;;;;;;;;19.30;99.90;;;;;;5073869;28;19913;-86
2022/08/10 03:22:45;;;;;;;;;;;19.30;99.90;;;;;;5073894;28;19978;-86
2022/08/10 03:25:11;;;;;;;;;;;19.20;99.90;;;;;;5074702;28;19908;-87
2022/08/10 03:27:37;;;;;;;;;;;19.20;99.90;;;;;;5074562;28;20006;-87
2022/08/10 03:30:03;;;;;;;;;;;19.20;99.90;;;;;;5073656;28;20368;-86
2022/08/10 03:32:29;;;;;;;;;;;19.20;99.90;;;;;;5073578;28;19909;-86
2022/08/10 03:34:55;;;;;;;;;;;19.20;99.90;;;;;;5073543;28;19931;-86
2022/08/10 03:37:21;;;;;;;;;;;19.10;99.90;;;;;;5073325;28;19908;-86
2022/08/10 03:39:47;;;;;;;;;;;19.10;99.90;;;;;;5073499;28;19909;-86
2022/08/10 03:42:12;;;;;;;;;;;19.10;99.90;;;;;;5074623;28;20310;-86
2022/08/10 03:44:40;;;;;;;;;;;19.00;99.90;;;;;;5073323;28;19909;-86
2022/08/10 03:47:06;;;;;;;;;;;19.10;99.90;;;;;;5074240;28;20064;-87
2022/08/10 03:49:32;;;;;;;;;;;19.00;99.90;;;;;;5073188;28;19908;-86
2022/08/10 03:51:58;;;;;;;;;;;19.00;99.90;;;;;;5074584;28;19999;-86
2022/08/10 03:54:24;;;;;;;;;;;19.00;99.90;;;;;;5073495;28;19908;-86
2022/08/10 03:56:49;;;;;;;;;;;19.00;99.90;;;;;;5072878;28;20291;-86
2022/08/10 03:59:15;;;;;;;;;;;18.90;99.90;;;;;;5073120;28;20300;-86
2022/08/10 04:01:41;;;;;;;;;;;18.90;99.90;;;;;;5073179;28;19908;-86
2022/08/10 04:04:07;;;;;;;;;;;18.80;99.90;;;;;;5072988;28;19919;-86
2022/08/10 04:06:33;;;;;;;;;;;18.80;99.90;;;;;;5072682;28;20002;-86
2022/08/10 04:08:58;;;;;;;;;;;18.80;99.90;;;;;;5072958;28;19908;-86
2022/08/10 04:11:23;;;;;;;;;;;18.80;99.90;;;;;;5072914;28;19908;-86
2022/08/10 04:13:49;;;;;;;;;;;18.70;99.90;;;;;;5074185;28;20388;-86
2022/08/10 04:16:14;;;;;;;;;;;18.70;99.90;;;;;;5073809;28;19908;-86
2022/08/10 04:18:40;;;;;;;;;;;18.70;99.90;;;;;;5072764;28;19916;-87
2022/08/10 04:21:07;;;;;;;;;;;18.70;99.90;;;;;;5073886;28;20427;-86
2022/08/10 04:23:35;;;;;;;;;;;18.70;99.90;;;;;;5072773;28;19958;-86
2022/08/10 04:26:00;;;;;;;;;;;18.70;99.90;;;;;;5072418;28;20296;-86
2022/08/10 04:28:26;;;;;;;;;;;18.70;99.90;;;;;;5072549;28;19920;-86
2022/08/10 04:30:53;;;;;;;;;;;18.70;99.90;;;;;;5072496;28;19908;-86
2022/08/10 04:33:20;;;;;;;;;;;18.70;99.90;;;;;;5072470;28;19909;-86
2022/08/10 04:35:46;;;;;;;;;;;18.70;99.90;;;;;;5072354;28;20002;-86
2022/08/10 04:38:12;;;;;;;;;;;18.70;99.90;;;;;;5073323;28;20026;-86
2022/08/10 04:40:37;;;;;;;;;;;18.70;99.90;;;;;;5072343;28;19909;-86
2022/08/10 04:43:05;;;;;;;;;;;18.80;99.90;;;;;;5073613;28;19912;-86
2022/08/10 04:45:30;;;;;;;;;;;18.80;99.90;;;;;;5073490;28;20322;-87
2022/08/10 04:47:56;;;;;;;;;;;18.80;99.90;;;;;;5072057;28;19920;-86
2022/08/10 04:50:21;;;;;;;;;;;18.80;99.90;;;;;;5073321;28;19916;-87
2022/08/10 04:52:47;;;;;;;;;;;18.90;99.90;;;;;;5072243;28;19909;-86
2022/08/10 04:55:12;;;;;;;;;;;18.90;99.90;;;;;;5072083;28;19908;-86
2022/08/10 04:57:38;;;;;;;;;;;18.90;99.90;;;;;;5071859;28;20327;-86
2022/08/10 05:00:04;;;;;;;;;;;18.90;99.90;;;;;;5072111;28;19909;-86
2022/08/10 05:02:29;;;;;;;;;;;18.90;99.90;;;;;;5072016;28;20302;-86
2022/08/10 05:04:55;;;;;;;;;;;19.00;99.90;;;;;;5073939;28;19916;-87
2022/08/10 05:07:20;;;;;;;;;;;19.00;99.90;;;;;;5071727;28;20020;-86
2022/08/10 05:09:46;;;;;;;;;;;19.10;99.90;;;;;;5071740;28;19995;-86
2022/08/10 05:12:12;;;;;;;;;;;19.00;99.90;;;;;;5073067;28;20003;-87
2022/08/10 05:14:37;;;;;;;;;;;19.10;99.90;;;;;;5071988;28;19951;-87
2022/08/10 05:17:03;;;;;;;;;;;19.20;99.90;;;;;;5072728;28;20527;-86
2022/08/10 05:19:28;;;;;;;;;;;19.30;99.90;;;;;;5071860;28;19916;-87
2022/08/10 05:21:54;;;;;;;;;;;19.30;99.90;;;;;;5071973;28;19915;-86
2022/08/10 05:24:19;;;;;;;;;;;19.40;99.90;;;;;;5071874;28;20367;-87
2022/08/10 05:26:45;;;;;;;;;;;19.40;99.90;;;;;;5071955;28;19919;-87
2022/08/10 05:29:10;;;;;;;;;;;19.50;99.90;;;;;;5072031;28;19958;-86
2022/08/10 05:31:35;;;;;;;;;;;19.60;99.90;;;;;;5071722;28;19913;-86
2022/08/10 05:34:01;;;;;;;;;;;19.60;99.90;;;;;;5071758;28;19958;-86
2022/08/10 05:36:27;;;;;;;;;;;19.70;99.90;;;;;;5072800;28;20007;-87
2022/08/10 05:38:53;;;;;;;;;;;19.80;99.90;;;;;;5071805;28;19915;-87
2022/08/10 05:41:18;;;;;;;;;;;19.90;99.90;;;;;;5071741;28;20029;-88
2022/08/10 05:43:44;;;;;;;;;;;19.90;99.90;;;;;;5071765;28;19957;-87
2022/08/10 05:46:09;;;;;;;;;;;20.00;99.90;;;;;;5071769;28;20279;-87
2022/08/10 05:48:36;;;;;;;;;;;20.10;99.90;;;;;;5071611;28;19916;-87
2022/08/10 05:51:01;;;;;;;;;;;20.10;99.90;;;;;;5071850;28;20394;-88
2022/08/10 05:53:27;;;;;;;;;;;20.30;99.90;;;;;;5072025;28;19915;-87
2022/08/10 05:55:52;;;;;;;;;;;20.40;99.90;;;;;;5071625;28;19954;-87
2022/08/10 05:58:18;;;;;;;;;;;20.50;99.90;;;;;;5071530;28;20388;-87
2022/08/10 06:00:45;;;;;;;;;;;20.60;99.90;;;;;;5072843;28;20310;-87
2022/08/10 06:03:13;;;;;;;;;;;20.70;99.90;;;;;;5071495;28;19909;-87
2022/08/10 06:05:39;;;;;;;;;;;20.80;99.90;;;;;;5072909;28;19915;-87
2022/08/10 06:08:12;;;;;;;;;;;20.90;99.90;;;;;;5072720;28;19962;-87
2022/08/10 06:10:39;;;;;;;;;;;21.10;99.90;;;;;;5071359;28;19909;-87
2022/08/10 06:16:07;;;;;;;;;;;21.20;99.90;;;;;;5010581;28;19960;-87
2022/08/10 06:18:34;;;;;;;;;;;21.40;99.90;;;;;;5055230;28;19995;-87
2022/08/10 06:21:00;;;;;;;;;;;21.40;99.90;;;;;;5071369;28;20355;-87
2022/08/10 06:23:30;;;;;;;;;;;21.60;99.90;;;;;;5071259;28;19995;-87
2022/08/10 06:25:55;;;;;;;;;;;21.70;99.90;;;;;;5072489;28;20598;-87
2022/08/10 06:28:22;;;;;;;;;;;21.80;99.90;;;;;;5074375;28;19990;-86
2022/08/10 06:30:49;;;;;;;;;;;22.00;99.90;;;;;;5076103;28;19908;-87
2022/08/10 06:33:16;;;;;;;;;;;22.10;99.90;;;;;;5074960;28;19908;-87
2022/08/10 06:35:42;;;;;;;;;;;22.20;99.90;;;;;;5074978;28;20003;-87
2022/08/10 06:38:08;;;;;;;;;;;22.30;99.90;;;;;;5074889;28;19974;-87
2022/08/10 06:40:36;;;;;;;;;;;22.40;99.90;;;;;;5076007;28;19961;-87
2022/08/10 06:43:05;;;;;;;;;;;22.60;99.90;;;;;;5073683;28;19908;-85
2022/08/10 06:45:34;;;;;;;;;;;22.70;99.90;;;;;;5068507;28;19920;-86
2022/08/10 06:48:02;;;;;;;;;;;22.80;99.90;;;;;;5073537;28;19912;-87
2022/08/10 06:50:46;;;;;;;;;;;22.90;99.90;;;;;;5080927;28;19911;-86
2022/08/10 06:53:28;;;;;;;;;;;23.10;99.90;;;;;;5098627;28;19918;-85
2022/08/10 07:02:55;;;;;;;;;;;23.50;99.90;;;;;;5071236;28;19919;-86
2022/08/10 07:05:23;;;;;;;;;;;23.60;99.90;;;;;;5052816;28;19964;-86
2022/08/10 07:07:49;;;;;;;;;;;23.70;99.90;;;;;;5054491;28;19914;-87
2022/08/10 07:10:17;;;;;;;;;;;23.70;99.90;;;;;;5037911;28;19913;-86
2022/08/10 07:12:43;;;;;;;;;;;23.90;99.90;;;;;;5077524;28;19913;-86
2022/08/10 07:15:11;;;;;;;;;;;24.00;99.90;;;;;;5074738;28;19915;-85
2022/08/10 07:17:37;;;;;;;;;;;24.10;99.90;;;;;;5073701;28;19912;-84
2022/08/10 07:20:05;;;;;;;;;;;24.20;99.90;;;;;;5074880;28;19912;-85
2022/08/10 07:22:32;;;;;;;;;;;24.30;99.90;;;;;;5074479;28;19908;-85
2022/08/10 07:24:57;;;;;;;;;;;24.40;99.90;;;;;;5073770;28;19916;-85
2022/08/10 07:27:24;;;;;;;;;;;24.40;99.90;;;;;;5074738;28;19912;-85
2022/08/10 07:29:50;;;;;;;;;;;24.60;99.90;;;;;;5074026;28;19931;-85
2022/08/10 07:32:18;;;;;;;;;;;24.70;99.90;;;;;;5073354;28;20371;-85
2022/08/10 07:34:43;;;;;;;;;;;24.70;99.90;;;;;;5073598;28;19908;-85
2022/08/10 07:37:09;;;;;;;;;;;24.80;99.90;;;;;;5073207;28;20310;-86
2022/08/10 07:39:36;;;;;;;;;;;24.90;99.90;;;;;;5072773;28;20394;-85
2022/08/10 07:42:03;;;;;;;;;;;25.00;99.90;;;;;;5074488;28;20360;-84
2022/08/10 07:44:30;;;;;;;;;;;25.10;99.90;;;;;;5074723;28;20344;-84
2022/08/10 07:46:56;;;;;;;;;;;25.30;99.90;;;;;;5074070;28;19920;-85
2022/08/10 07:49:26;;;;;;;;;;;25.30;99.90;;;;;;5074463;28;19962;-84
2022/08/10 07:51:55;;;;;;;;;;;25.40;99.90;;;;;;5074402;28;19930;-85
2022/08/10 07:54:22;;;;;;;;;;;25.60;99.90;;;;;;5074521;28;19908;-85
2022/08/10 07:56:50;;;;;;;;;;;25.80;99.90;;;;;;5074484;28;19962;-85
2022/08/10 07:59:17;;;;;;;;;;;25.90;99.90;;;;;;5073157;28;19913;-84
2022/08/10 08:01:49;;;;;;;;;;;25.90;99.90;;;;;;5072786;28;19912;-84
2022/08/10 08:04:15;;;;;;;;;;;26.00;99.90;;;;;;5073035;28;19912;-83
2022/08/10 08:06:41;;;;;;;;;;;26.10;99.00;;;;;;5072379;28;19956;-84
2022/08/10 08:09:07;;;;;;;;;;;26.30;99.90;;;;;;5072813;28;19956;-85
2022/08/10 08:11:34;;;;;;;;;;;26.40;99.00;;;;;;5072665;28;19908;-84
2022/08/10 08:14:00;;;;;;;;;;;26.90;98.10;;;;;;5072536;28;19909;-85
2022/08/10 08:16:26;;;;;;;;;;;27.80;95.60;;;;;;5073470;28;19908;-85
2022/08/10 08:18:53;;;;;;;;;;;29.10;94.30;;;;;;5073707;28;19916;-84
2022/08/10 08:21:19;;;;;;;;;;;30.30;90.40;;;;;;5073532;28;19908;-85
2022/08/10 08:23:45;;;;;;;;;;;31.50;77.80;;;;;;5072386;28;19915;-85
2022/08/10 08:26:11;;;;;;;;;;;32.60;73.50;;;;;;5072240;28;19915;-85
2022/08/10 08:28:37;;;;;;;;;;;33.90;63.60;;;;;;5073213;28;19908;-85
2022/08/10 08:31:03;;;;;;;;;;;34.70;58.40;;;;;;5073239;28;19915;-85
2022/08/10 08:33:30;;;;;;;;;;;35.40;54.80;;;;;;5071838;28;19912;-85
2022/08/10 08:35:56;;;;;;;;;;;36.20;51.00;;;;;;5073240;28;19966;-85
2022/08/10 08:38:23;;;;;;;;;;;37.00;48.80;;;;;;5071720;28;20331;-85
2022/08/10 08:41:02;;;;;;;;;;;37.40;46.00;;;;;;5071787;28;19935;-85
2022/08/10 08:43:30;;;;;;;;;;;37.80;44.20;;;;;;5071897;28;20275;-85
2022/08/10 08:46:14;;;;;;;;;;;38.40;42.90;;;;;;5072939;28;19913;-85
2022/08/10 08:48:50;;;;;;;;;;;39.00;42.10;;;;;;5072879;28;20003;-86
2022/08/10 08:51:19;;;;;;;;;;;39.40;40.90;;;;;;5070764;28;19974;-84
2022/08/10 08:53:47;;;;;;;;;;;40.20;39.50;;;;;;5071626;28;19913;-85
2022/08/10 08:56:13;;;;;;;;;;;40.70;38.30;;;;;;5072765;28;20364;-86
2022/08/10 08:58:59;;;;;;;;;;;41.30;37.80;;;;;;5072836;28;20003;-85
2022/08/10 09:01:43;;;;;;;;;;;41.90;36.40;;;;;;5072856;28;19914;-85
2022/08/10 09:04:09;;;;;;;;;;;42.30;34.00;;;;;;5072566;28;19951;-86
2022/08/10 09:06:43;;;;;;;;;;;42.60;32.10;;;;;;5071274;28;19952;-86
2022/08/10 09:09:14;;;;;;;;;;;42.90;32.80;;;;;;5072791;28;19916;-84
2022/08/10 09:11:49;;;;;;;;;;;43.40;31.10;;;;;;5072833;28;20333;-85
2022/08/10 09:14:24;;;;;;;;;;;43.90;30.80;;;;;;5071385;28;20395;-86
2022/08/10 09:17:02;;;;;;;;;;;44.20;30.20;;;;;;5072307;28;19908;-86
2022/08/10 09:19:28;;;;;;;;;;;44.50;29.80;;;;;;5072777;28;19919;-86
2022/08/10 09:21:59;;;;;;;;;;;44.70;30.00;;;;;;5071422;28;20315;-84
2022/08/10 09:24:28;;;;;;;;;;;45.10;28.70;;;;;;5072660;28;19959;-85
2022/08/10 09:26:55;;;;;;;;;;;45.20;27.50;;;;;;5072156;28;20015;-86
2022/08/10 09:29:24;;;;;;;;;;;45.60;28.10;;;;;;5072492;28;20378;-87
2022/08/10 09:31:53;;;;;;;;;;;45.90;28.30;;;;;;5071710;28;20326;-88
2022/08/10 09:34:18;;;;;;;;;;;46.30;28.40;;;;;;5062930;28;19913;-87
2022/08/10 09:36:52;;;;;;;;;;;46.80;27.70;;;;;;5060266;28;20011;-87
2022/08/10 09:39:30;;;;;;;;;;;47.20;27.20;;;;;;5056081;28;19909;-87
2022/08/10 09:42:14;;;;;;;;;;;47.60;26.00;;;;;;5050888;28;19908;-88
2022/08/10 09:44:47;;;;;;;;;;;48.00;26.70;;;;;;5050843;28;20376;-88
2022/08/10 09:47:25;;;;;;;;;;;48.30;26.60;;;;;;5059805;28;20291;-86
2022/08/10 09:49:51;;;;;;;;;;;48.20;26.30;;;;;;5051208;28;19978;-87
2022/08/10 09:52:35;;;;;;;;;;;48.20;25.50;;;;;;5051954;28;19916;-87
2022/08/10 09:55:07;;;;;;;;;;;48.20;25.50;;;;;;5050915;28;20291;-87
2022/08/10 09:57:40;;;;;;;;;;;48.30;25.70;;;;;;5051740;28;19909;-87
2022/08/10 10:00:14;;;;;;;;;;;47.80;25.30;;;;;;5050402;28;19916;-87
2022/08/10 10:02:42;;;;;;;;;;;46.70;24.90;;;;;;5054095;28;19915;-86
2022/08/10 10:05:30;;;;;;;;;;;46.40;25.40;;;;;;5055379;28;20446;-86
2022/08/10 10:07:59;;;;;;;;;;;46.50;25.70;;;;;;5055607;28;19917;-86
2022/08/10 10:10:31;;;;;;;;;;;46.70;25.60;;;;;;5056825;28;19934;-85
2022/08/10 10:13:08;;;;;;;;;;;47.20;25.80;;;;;;5056806;28;19909;-86
2022/08/10 10:15:47;;;;;;;;;;;47.80;24.80;;;;;;5055363;28;19944;-85
2022/08/10 10:18:22;;;;;;;;;;;47.90;24.70;;;;;;5057130;28;19909;-85
2022/08/10 10:21:07;;;;;;;;;;;47.80;24.50;;;;;;5060463;28;19913;-87
2022/08/10 10:23:35;;;;;;;;;;;46.30;24.60;;;;;;5068238;28;20279;-86
2022/08/10 10:26:19;;;;;;;;;;;45.10;25.10;;;;;;5074978;28;19912;-86
2022/08/10 10:28:59;;;;;;;;;;;44.00;26.20;;;;;;5074814;28;19931;-88
2022/08/10 10:31:43;;;;;;;;;;;43.00;27.10;;;;;;5074270;28;19916;-86
2022/08/10 10:34:12;;;;;;;;;;;43.00;28.00;;;;;;5074627;28;19951;-87
2022/08/10 10:36:40;;;;;;;;;;;42.40;26.40;;;;;;5075778;28;19913;-87
2022/08/10 10:39:06;;;;;;;;;;;41.70;26.10;;;;;;5075092;28;20339;-86
2022/08/10 10:41:35;;;;;;;;;;;41.10;27.20;;;;;;5075996;28;20398;-86
2022/08/10 10:44:22;;;;;;;;;;;40.30;27.10;;;;;;5074440;28;19955;-88
2022/08/10 10:47:07;;;;;;;;;;;39.40;27.50;;;;;;5073340;28;20003;-88
2022/08/10 10:49:41;;;;;;;;;;;38.60;28.40;;;;;;5073664;28;19978;-88
2022/08/10 10:52:14;;;;;;;;;;;37.70;30.00;;;;;;5078362;28;19913;-86
2022/08/10 10:54:55;;;;;;;;;;;37.00;32.20;;;;;;5085772;28;19959;-89
2022/08/10 10:57:28;;;;;;;;;;;36.60;31.80;;;;;;5073524;28;20296;-88
2022/08/10 11:00:02;;;;;;;;;;;36.20;33.30;;;;;;5073745;28;20280;-88
2022/08/10 11:02:42;;;;;;;;;;;35.80;33.60;;;;;;5073829;28;19915;-88
2022/08/10 11:05:20;;;;;;;;;;;35.60;33.20;;;;;;5073765;28;19920;-90
2022/08/10 11:07:56;;;;;;;;;;;35.30;33.40;;;;;;5071681;28;20455;-89
2022/08/10 11:10:24;;;;;;;;;;;35.00;33.40;;;;;;5073525;28;19940;-88
2022/08/10 11:13:11;;;;;;;;;;;34.70;33.70;;;;;;5073172;28;19913;-88
2022/08/10 11:15:37;;;;;;;;;;;34.10;31.90;;;;;;5053330;28;19913;-88
2022/08/10 11:18:25;;;;;;;;;;;33.60;33.10;;;;;;5073479;28;20350;-88
2022/08/10 11:20:53;;;;;;;;;;;33.70;32.90;;;;;;5074488;28;20384;-88
2022/08/10 11:23:24;;;;;;;;;;;33.70;32.30;;;;;;5073473;28;20441;-88
2022/08/10 11:26:10;;;;;;;;;;;33.70;33.30;;;;;;5072945;28;19908;-88
2022/08/10 11:28:39;;;;;;;;;;;33.60;33.40;;;;;;5056712;28;19923;-87
2022/08/10 11:31:14;;;;;;;;;;;33.50;33.20;;;;;;5055987;28;19992;-88
2022/08/10 11:33:49;;;;;;;;;;;33.40;33.40;;;;;;5056844;28;19909;-87
2022/08/10 11:36:19;;;;;;;;;;;33.30;34.00;;;;;;5067528;28;19948;-87
2022/08/10 11:38:52;;;;;;;;;;;33.30;35.30;;;;;;5075345;28;19916;-87
2022/08/10 11:41:28;;;;;;;;;;;33.30;34.80;;;;;;5075154;28;19965;-87
2022/08/10 11:44:02;;;;;;;;;;;33.30;33.30;;;;;;5075597;28;19908;-87
2022/08/10 11:46:32;;;;;;;;;;;33.30;33.80;;;;;;5074358;28;19917;-87
2022/08/10 11:49:04;;;;;;;;;;;33.10;33.50;;;;;;5075484;28;19991;-87
2022/08/10 11:51:42;;;;;;;;;;;33.10;32.60;;;;;;5074888;28;19924;-87
2022/08/10 11:54:18;;;;;;;;;;;33.10;33.50;;;;;;5075103;28;19908;-87
2022/08/10 11:56:46;;;;;;;;;;;32.90;33.50;;;;;;5072380;28;19908;-87
2022/08/10 12:01:58;;;;;;;;;;;32.80;32.90;;;;;;5087421;28;19931;-86
2022/08/10 12:04:24;;;;;;;;;;;32.90;33.60;;;;;;5079894;28;19908;-85
2022/08/10 12:06:52;;;;;;;;;;;32.90;33.00;;;;;;5084712;28;20329;-85
2022/08/10 12:09:18;;;;;;;;;;;32.90;34.30;;;;;;5075697;28;20008;-86
2022/08/10 12:11:45;;;;;;;;;;;33.10;34.90;;;;;;5064697;28;19913;-86
2022/08/10 12:14:19;;;;;;;;;;;33.20;33.30;;;;;;5062115;28;20226;-85
2022/08/10 12:16:46;;;;;;;;;;;33.30;33.00;;;;;;5056430;28;20288;-85
2022/08/10 12:19:37;;;;;;;;;;;33.70;34.00;;;;;;5060654;28;19912;-86
2022/08/10 12:22:07;;;;;;;;;;;33.60;33.80;;;;;;5057406;28;19916;-86
2022/08/10 12:24:43;;;;;;;;;;;33.50;33.60;;;;;;5063300;28;19936;-86
2022/08/10 12:27:18;;;;;;;;;;;33.40;32.80;;;;;;5060573;28;19919;-86
2022/08/10 12:30:02;;;;;;;;;;;33.40;33.60;;;;;;5059434;28;19908;-85
2022/08/10 12:32:47;;;;;;;;;;;33.40;33.20;;;;;;5070487;28;19921;-84
2022/08/10 12:35:34;;;;;;;;;;;33.60;32.90;;;;;;5075723;28;20362;-85
2022/08/10 12:38:03;;;;;;;;;;;34.10;33.10;;;;;;5071659;28;19909;-85
2022/08/10 12:40:30;;;;;;;;;;;34.70;32.50;;;;;;5083885;28;19913;-84
2022/08/10 12:42:56;;;;;;;;;;;34.90;33.00;;;;;;5085915;28;20306;-85
2022/08/10 12:45:31;;;;;;;;;;;35.20;32.40;;;;;;5085103;28;19912;-85
2022/08/10 12:48:00;;;;;;;;;;;35.40;31.30;;;;;;5085554;28;19971;-85
2022/08/10 12:50:42;;;;;;;;;;;35.20;32.90;;;;;;5084740;28;19916;-85
2022/08/10 12:53:14;;;;;;;;;;;34.90;31.60;;;;;;5081022;28;20011;-84
2022/08/10 12:55:40;;;;;;;;;;;34.60;31.70;;;;;;5077070;28;19909;-85
2022/08/10 12:58:10;;;;;;;;;;;34.50;33.10;;;;;;5073769;28;19913;-85
2022/08/10 13:00:37;;;;;;;;;;;34.20;33.30;;;;;;5077796;28;19912;-86
2022/08/10 13:03:04;;;;;;;;;;;34.20;33.80;;;;;;5079800;28;19912;-86
2022/08/10 13:05:31;;;;;;;;;;;34.20;33.70;;;;;;5080892;28;19916;-86
2022/08/10 13:11:01;;;;;;;;;;;34.00;32.80;;;;;;5077459;28;19936;-86
2022/08/10 13:13:30;;;;;;;;;;;33.90;33.40;;;;;;5075742;28;19916;-87
2022/08/10 13:15:57;;;;;;;;;;;33.80;32.70;;;;;;5070298;28;19917;-86
2022/08/10 13:18:24;;;;;;;;;;;33.70;34.20;;;;;;5087499;28;20280;-85
2022/08/10 13:20:52;;;;;;;;;;;33.60;33.50;;;;;;5079647;28;19912;-86
2022/08/10 13:23:21;;;;;;;;;;;33.70;34.00;;;;;;5072314;28;19940;-85
2022/08/10 13:25:49;;;;;;;;;;;33.60;34.70;;;;;;5078882;28;19919;-84
2022/08/10 13:28:16;;;;;;;;;;;33.60;35.80;;;;;;5077066;28;19977;-84
2022/08/10 13:30:44;;;;;;;;;;;33.70;35.40;;;;;;5085721;28;19932;-86
2022/08/10 13:33:12;;;;;;;;;;;33.70;33.70;;;;;;5069818;28;19913;-84
2022/08/10 13:35:37;;;;;;;;;;;33.70;35.20;;;;;;5067551;28;19908;-83
2022/08/10 13:38:04;;;;;;;;;;;33.70;35.50;;;;;;5067979;28;19935;-83
2022/08/10 13:40:30;;;;;;;;;;;33.80;35.80;;;;;;5066848;28;19955;-85
2022/08/10 13:42:57;;;;;;;;;;;33.80;34.60;;;;;;5068835;28;19916;-84
2022/08/10 13:45:23;;;;;;;;;;;33.70;36.10;;;;;;5075209;28;19917;-84
2022/08/10 13:47:51;;;;;;;;;;;33.80;36.00;;;;;;5067961;28;19923;-85
2022/08/10 13:50:26;;;;;;;;;;;33.90;34.00;;;;;;5073245;28;19946;-88
2022/08/10 13:52:54;;;;;;;;;;;33.90;34.90;;;;;;5067497;28;19976;-87
2022/08/10 13:55:26;;;;;;;;;;;34.00;34.80;;;;;;5075917;28;19951;-86
2022/08/10 13:57:55;;;;;;;;;;;34.10;34.10;;;;;;5085308;28;19948;-85
2022/08/10 14:00:30;;;;;;;;;;;34.00;36.90;;;;;;5077650;28;19918;-86
2022/08/10 14:06:18;;;;;;;;;;;33.90;33.90;;;;;;5005511;28;20016;-84
2022/08/10 14:11:49;;;;;;;;;;;33.60;34.50;;;;;;5036073;28;20280;-84
2022/08/10 14:14:16;;;;;;;;;;;33.60;37.00;;;;;;5061709;28;19940;-83
2022/08/10 14:16:42;;;;;;;;;;;33.70;36.70;;;;;;5077469;28;20497;-85
2022/08/10 14:19:10;;;;;;;;;;;33.70;36.40;;;;;;5076274;28;19931;-84
2022/08/10 14:21:37;;;;;;;;;;;33.80;36.20;;;;;;5058602;28;19962;-85
2022/08/10 14:24:03;;;;;;;;;;;34.00;38.50;;;;;;5058911;28;19974;-85
2022/08/10 14:26:29;;;;;;;;;;;34.00;36.30;;;;;;5056528;28;19920;-84
2022/08/10 14:28:56;;;;;;;;;;;34.00;35.00;;;;;;5057237;28;19973;-87
2022/08/10 14:31:27;;;;;;;;;;;34.20;37.20;;;;;;5068699;28;19909;-86
2022/08/10 14:33:54;;;;;;;;;;;34.40;35.70;;;;;;5053579;28;19909;-86
2022/08/10 14:36:39;;;;;;;;;;;34.60;34.40;;;;;;5058406;28;20066;-88
2022/08/10 14:39:05;;;;;;;;;;;34.80;35.00;;;;;;5057966;28;20021;-87
2022/08/10 14:41:34;;;;;;;;;;;35.00;35.70;;;;;;5063621;28;19893;-85
2022/08/10 14:44:05;;;;;;;;;;;35.40;37.10;;;;;;5046303;28;19977;-85
2022/08/10 14:46:31;;;;;;;;;;;36.20;34.60;;;;;;5072927;28;19909;-86
2022/08/10 14:48:57;;;;;;;;;;;37.10;34.90;;;;;;5069390;28;19931;-86
2022/08/10 14:51:27;;;;;;;;;;;37.30;34.20;;;;;;5056939;28;19917;-87
2022/08/10 14:53:55;;;;;;;;;;;37.60;32.10;;;;;;5061344;28;19909;-85